sensor_id;sensor_type;location;lat;lon;timestamp;P1;durP1;ratioP1;P2;durP2;ratioP2
23258;SDS011;11798;51.528;7.240;2023-02-24T00:01:24;25.97;;;5.03;;
23258;SDS011;11798;51.528;7.240;2023-02-24T00:03:54;24.57;;;5.87;;
23258;SDS011;11798;51.528;7.240;2023-02-24T00:06:21;22.13;;;4.87;;
23258;SDS011;11798;51.528;7.240;2023-02-24T00:08:48;27.20;;;6.33;;
23258;SDS011;11798;51.528;7.240;2023-02-24T00:11:14;24.80;;;5.43;;
23258;SDS011;11798;51.528;7.240;2023-02-24T00:13:42;24.87;;;5.13;;
23258;SDS011;11798;51.528;7.240;2023-02-24T00:16:12;23.70;;;5.17;;
23258;SDS011;11798;51.528;7.240;2023-02-24T00:18:41;25.77;;;4.87;;
23258;SDS011;11798;51.528;7.240;2023-02-24T00:21:09;21.87;;;4.93;;
23258;SDS011;11798;51.528;7.240;2023-02-24T00:23:37;23.17;;;5.37;;
23258;SDS011;11798;51.528;7.240;2023-02-24T00:26:05;25.90;;;5.17;;
23258;SDS011;11798;51.528;7.240;2023-02-24T00:28:32;22.57;;;5.33;;
23258;SDS011;11798;51.528;7.240;2023-02-24T00:31:05;17.10;;;4.97;;
23258;SDS011;11798;51.528;7.240;2023-02-24T00:33:34;21.67;;;4.93;;
23258;SDS011;11798;51.528;7.240;2023-02-24T00:36:11;22.43;;;5.00;;
23258;SDS011;11798;51.528;7.240;2023-02-24T00:38:39;20.97;;;5.23;;
23258;SDS011;11798;51.528;7.240;2023-02-24T00:41:13;18.43;;;5.63;;
23258;SDS011;11798;51.528;7.240;2023-02-24T00:43:40;18.13;;;5.33;;
23258;SDS011;11798;51.528;7.240;2023-02-24T00:46:11;21.13;;;5.23;;
23258;SDS011;11798;51.528;7.240;2023-02-24T00:48:37;20.77;;;5.23;;
23258;SDS011;11798;51.528;7.240;2023-02-24T00:51:14;24.90;;;5.87;;
23258;SDS011;11798;51.528;7.240;2023-02-24T00:53:47;24.10;;;6.93;;
23258;SDS011;11798;51.528;7.240;2023-02-24T00:56:20;29.97;;;6.17;;
23258;SDS011;11798;51.528;7.240;2023-02-24T00:58:46;29.90;;;6.47;;
23258;SDS011;11798;51.528;7.240;2023-02-24T01:01:19;28.83;;;7.10;;
23258;SDS011;11798;51.528;7.240;2023-02-24T01:03:47;28.33;;;7.53;;
23258;SDS011;11798;51.528;7.240;2023-02-24T01:06:14;31.17;;;7.63;;
23258;SDS011;11798;51.528;7.240;2023-02-24T01:08:44;32.73;;;9.03;;
23258;SDS011;11798;51.528;7.240;2023-02-24T01:11:33;24.67;;;7.13;;
23258;SDS011;11798;51.528;7.240;2023-02-24T01:14:18;36.20;;;7.47;;
23258;SDS011;11798;51.528;7.240;2023-02-24T01:16:45;24.97;;;7.33;;
23258;SDS011;11798;51.528;7.240;2023-02-24T01:19:24;21.60;;;5.90;;
23258;SDS011;11798;51.528;7.240;2023-02-24T01:21:55;22.70;;;6.07;;
23258;SDS011;11798;51.528;7.240;2023-02-24T01:24:26;28.63;;;6.60;;
23258;SDS011;11798;51.528;7.240;2023-02-24T01:26:52;29.63;;;6.53;;
23258;SDS011;11798;51.528;7.240;2023-02-24T01:29:18;31.83;;;6.50;;
23258;SDS011;11798;51.528;7.240;2023-02-24T01:31:46;24.23;;;5.80;;
23258;SDS011;11798;51.528;7.240;2023-02-24T01:34:15;22.87;;;5.67;;
23258;SDS011;11798;51.528;7.240;2023-02-24T01:36:41;26.13;;;5.67;;
23258;SDS011;11798;51.528;7.240;2023-02-24T01:39:07;21.67;;;5.97;;
23258;SDS011;11798;51.528;7.240;2023-02-24T01:41:35;29.00;;;6.40;;
23258;SDS011;11798;51.528;7.240;2023-02-24T01:46:51;31.53;;;6.30;;
23258;SDS011;11798;51.528;7.240;2023-02-24T01:49:31;27.43;;;6.37;;
23258;SDS011;11798;51.528;7.240;2023-02-24T01:52:03;24.07;;;5.40;;
23258;SDS011;11798;51.528;7.240;2023-02-24T01:54:37;31.03;;;5.60;;
23258;SDS011;11798;51.528;7.240;2023-02-24T01:57:07;29.87;;;6.37;;
23258;SDS011;11798;51.528;7.240;2023-02-24T01:59:38;22.57;;;6.63;;
23258;SDS011;11798;51.528;7.240;2023-02-24T02:02:05;24.67;;;5.23;;
23258;SDS011;11798;51.528;7.240;2023-02-24T02:07:10;24.07;;;4.70;;
23258;SDS011;11798;51.528;7.240;2023-02-24T02:09:39;23.37;;;5.33;;
23258;SDS011;11798;51.528;7.240;2023-02-24T02:12:07;30.70;;;6.20;;
23258;SDS011;11798;51.528;7.240;2023-02-24T02:14:33;23.17;;;5.57;;
23258;SDS011;11798;51.528;7.240;2023-02-24T02:27:21;26.27;;;4.50;;
23258;SDS011;11798;51.528;7.240;2023-02-24T02:30:05;27.43;;;4.90;;
23258;SDS011;11798;51.528;7.240;2023-02-24T02:35:55;22.10;;;4.17;;
23258;SDS011;11798;51.528;7.240;2023-02-24T02:38:41;23.07;;;4.47;;
23258;SDS011;11798;51.528;7.240;2023-02-24T02:41:23;19.80;;;4.07;;
23258;SDS011;11798;51.528;7.240;2023-02-24T02:46:57;22.83;;;3.67;;
23258;SDS011;11798;51.528;7.240;2023-02-24T02:49:41;15.60;;;4.27;;
23258;SDS011;11798;51.528;7.240;2023-02-24T02:52:17;20.87;;;3.77;;
23258;SDS011;11798;51.528;7.240;2023-02-24T02:55:01;20.33;;;4.03;;
23258;SDS011;11798;51.528;7.240;2023-02-24T02:57:46;19.10;;;4.13;;
23258;SDS011;11798;51.528;7.240;2023-02-24T03:02:51;17.37;;;4.13;;
23258;SDS011;11798;51.528;7.240;2023-02-24T03:05:28;22.43;;;3.63;;
23258;SDS011;11798;51.528;7.240;2023-02-24T03:07:57;17.37;;;3.70;;
23258;SDS011;11798;51.528;7.240;2023-02-24T03:10:28;16.87;;;3.40;;
23258;SDS011;11798;51.528;7.240;2023-02-24T03:13:01;24.10;;;4.47;;
23258;SDS011;11798;51.528;7.240;2023-02-24T03:15:34;22.43;;;3.53;;
23258;SDS011;11798;51.528;7.240;2023-02-24T03:18:07;27.03;;;4.20;;
23258;SDS011;11798;51.528;7.240;2023-02-24T03:20:43;19.17;;;3.53;;
23258;SDS011;11798;51.528;7.240;2023-02-24T03:23:16;12.60;;;3.53;;
23258;SDS011;11798;51.528;7.240;2023-02-24T03:25:54;21.43;;;4.10;;
23258;SDS011;11798;51.528;7.240;2023-02-24T03:29:04;19.73;;;3.87;;
23258;SDS011;11798;51.528;7.240;2023-02-24T03:32:02;13.63;;;3.07;;
23258;SDS011;11798;51.528;7.240;2023-02-24T03:37:06;20.07;;;4.30;;
23258;SDS011;11798;51.528;7.240;2023-02-24T03:39:35;17.27;;;3.80;;
23258;SDS011;11798;51.528;7.240;2023-02-24T03:44:30;18.03;;;4.10;;
23258;SDS011;11798;51.528;7.240;2023-02-24T03:47:03;16.63;;;4.33;;
23258;SDS011;11798;51.528;7.240;2023-02-24T03:49:29;21.70;;;3.57;;
23258;SDS011;11798;51.528;7.240;2023-02-24T04:00:36;23.30;;;4.87;;
23258;SDS011;11798;51.528;7.240;2023-02-24T04:03:18;15.53;;;3.50;;
23258;SDS011;11798;51.528;7.240;2023-02-24T04:06:04;12.80;;;3.33;;
23258;SDS011;11798;51.528;7.240;2023-02-24T04:09:32;12.17;;;3.70;;
23258;SDS011;11798;51.528;7.240;2023-02-24T04:11:40;15.63;;;3.63;;
23258;SDS011;11798;51.528;7.240;2023-02-24T04:14:18;13.57;;;2.97;;
23258;SDS011;11798;51.528;7.240;2023-02-24T04:17:05;16.43;;;3.67;;
23258;SDS011;11798;51.528;7.240;2023-02-24T04:19:50;21.23;;;3.63;;
23258;SDS011;11798;51.528;7.240;2023-02-24T04:22:19;12.93;;;2.90;;
23258;SDS011;11798;51.528;7.240;2023-02-24T04:24:49;12.93;;;3.40;;
23258;SDS011;11798;51.528;7.240;2023-02-24T04:27:22;26.07;;;3.47;;
23258;SDS011;11798;51.528;7.240;2023-02-24T04:29:50;13.43;;;3.07;;
23258;SDS011;11798;51.528;7.240;2023-02-24T04:32:23;15.30;;;3.00;;
23258;SDS011;11798;51.528;7.240;2023-02-24T04:35:15;16.73;;;3.83;;
23258;SDS011;11798;51.528;7.240;2023-02-24T04:37:47;17.03;;;3.43;;
23258;SDS011;11798;51.528;7.240;2023-02-24T04:40:37;10.90;;;3.13;;
23258;SDS011;11798;51.528;7.240;2023-02-24T04:43:07;15.90;;;3.10;;
23258;SDS011;11798;51.528;7.240;2023-02-24T04:45:35;16.13;;;3.30;;
23258;SDS011;11798;51.528;7.240;2023-02-24T04:48:05;17.83;;;4.20;;
23258;SDS011;11798;51.528;7.240;2023-02-24T04:50:37;12.57;;;3.53;;
23258;SDS011;11798;51.528;7.240;2023-02-24T04:53:05;17.50;;;4.00;;
23258;SDS011;11798;51.528;7.240;2023-02-24T04:55:38;16.47;;;4.37;;
23258;SDS011;11798;51.528;7.240;2023-02-24T04:58:08;25.30;;;4.93;;
23258;SDS011;11798;51.528;7.240;2023-02-24T05:00:36;22.07;;;4.50;;
23258;SDS011;11798;51.528;7.240;2023-02-24T05:03:07;22.53;;;4.43;;
23258;SDS011;11798;51.528;7.240;2023-02-24T05:05:35;17.33;;;5.63;;
23258;SDS011;11798;51.528;7.240;2023-02-24T05:08:03;14.27;;;4.37;;
23258;SDS011;11798;51.528;7.240;2023-02-24T05:10:43;19.37;;;4.70;;
23258;SDS011;11798;51.528;7.240;2023-02-24T05:13:17;20.73;;;4.93;;
23258;SDS011;11798;51.528;7.240;2023-02-24T05:16:02;20.23;;;4.93;;
23258;SDS011;11798;51.528;7.240;2023-02-24T05:18:31;18.40;;;4.77;;
23258;SDS011;11798;51.528;7.240;2023-02-24T05:21:11;18.20;;;5.20;;
23258;SDS011;11798;51.528;7.240;2023-02-24T05:23:59;23.40;;;4.83;;
23258;SDS011;11798;51.528;7.240;2023-02-24T05:26:31;25.77;;;5.30;;
23258;SDS011;11798;51.528;7.240;2023-02-24T05:29:02;18.80;;;5.07;;
23258;SDS011;11798;51.528;7.240;2023-02-24T05:31:29;20.30;;;5.97;;
23258;SDS011;11798;51.528;7.240;2023-02-24T05:33:57;14.40;;;5.03;;
23258;SDS011;11798;51.528;7.240;2023-02-24T05:36:35;15.97;;;4.63;;
23258;SDS011;11798;51.528;7.240;2023-02-24T05:39:09;23.80;;;5.50;;
23258;SDS011;11798;51.528;7.240;2023-02-24T05:41:43;18.13;;;5.03;;
23258;SDS011;11798;51.528;7.240;2023-02-24T05:44:15;22.40;;;5.43;;
23258;SDS011;11798;51.528;7.240;2023-02-24T05:46:56;16.17;;;4.67;;
23258;SDS011;11798;51.528;7.240;2023-02-24T05:49:33;18.27;;;5.00;;
23258;SDS011;11798;51.528;7.240;2023-02-24T05:52:16;21.33;;;4.80;;
23258;SDS011;11798;51.528;7.240;2023-02-24T05:54:42;20.57;;;5.40;;
23258;SDS011;11798;51.528;7.240;2023-02-24T05:57:13;20.60;;;4.90;;
23258;SDS011;11798;51.528;7.240;2023-02-24T05:59:43;16.23;;;5.33;;
23258;SDS011;11798;51.528;7.240;2023-02-24T06:02:10;15.70;;;5.50;;
23258;SDS011;11798;51.528;7.240;2023-02-24T06:04:42;18.20;;;5.33;;
23258;SDS011;11798;51.528;7.240;2023-02-24T06:07:25;18.43;;;5.37;;
23258;SDS011;11798;51.528;7.240;2023-02-24T06:09:54;20.53;;;5.23;;
23258;SDS011;11798;51.528;7.240;2023-02-24T06:12:23;19.10;;;5.60;;
23258;SDS011;11798;51.528;7.240;2023-02-24T06:14:56;20.60;;;6.57;;
23258;SDS011;11798;51.528;7.240;2023-02-24T06:17:24;18.27;;;5.63;;
23258;SDS011;11798;51.528;7.240;2023-02-24T06:19:52;19.33;;;5.43;;
23258;SDS011;11798;51.528;7.240;2023-02-24T06:22:50;18.73;;;6.33;;
23258;SDS011;11798;51.528;7.240;2023-02-24T06:25:21;22.63;;;6.80;;
23258;SDS011;11798;51.528;7.240;2023-02-24T06:27:54;20.93;;;5.70;;
23258;SDS011;11798;51.528;7.240;2023-02-24T06:30:24;21.90;;;5.43;;
23258;SDS011;11798;51.528;7.240;2023-02-24T06:32:56;20.40;;;6.87;;
23258;SDS011;11798;51.528;7.240;2023-02-24T06:35:23;19.80;;;5.80;;
23258;SDS011;11798;51.528;7.240;2023-02-24T06:37:49;19.17;;;6.40;;
23258;SDS011;11798;51.528;7.240;2023-02-24T06:40:15;21.90;;;5.97;;
23258;SDS011;11798;51.528;7.240;2023-02-24T06:42:46;19.13;;;6.30;;
23258;SDS011;11798;51.528;7.240;2023-02-24T06:45:13;18.23;;;5.70;;
23258;SDS011;11798;51.528;7.240;2023-02-24T06:47:43;17.90;;;5.97;;
23258;SDS011;11798;51.528;7.240;2023-02-24T06:50:13;16.73;;;5.57;;
23258;SDS011;11798;51.528;7.240;2023-02-24T06:52:46;22.10;;;6.87;;
23258;SDS011;11798;51.528;7.240;2023-02-24T06:55:13;14.27;;;5.80;;
23258;SDS011;11798;51.528;7.240;2023-02-24T06:57:58;22.43;;;7.20;;
23258;SDS011;11798;51.528;7.240;2023-02-24T07:00:32;20.50;;;6.77;;
23258;SDS011;11798;51.528;7.240;2023-02-24T07:03:07;18.10;;;6.43;;
23258;SDS011;11798;51.528;7.240;2023-02-24T07:05:41;14.77;;;6.10;;
23258;SDS011;11798;51.528;7.240;2023-02-24T07:08:15;14.27;;;5.53;;
23258;SDS011;11798;51.528;7.240;2023-02-24T07:10:55;16.13;;;5.20;;
23258;SDS011;11798;51.528;7.240;2023-02-24T07:13:24;16.63;;;4.50;;
23258;SDS011;11798;51.528;7.240;2023-02-24T07:16:00;20.40;;;4.53;;
23258;SDS011;11798;51.528;7.240;2023-02-24T07:18:36;17.53;;;4.73;;
23258;SDS011;11798;51.528;7.240;2023-02-24T07:21:07;16.93;;;4.87;;
23258;SDS011;11798;51.528;7.240;2023-02-24T07:23:41;15.47;;;4.17;;
23258;SDS011;11798;51.528;7.240;2023-02-24T07:26:10;20.77;;;5.50;;
23258;SDS011;11798;51.528;7.240;2023-02-24T07:28:41;16.80;;;4.60;;
23258;SDS011;11798;51.528;7.240;2023-02-24T07:31:12;12.40;;;3.50;;
23258;SDS011;11798;51.528;7.240;2023-02-24T07:33:45;14.53;;;3.70;;
23258;SDS011;11798;51.528;7.240;2023-02-24T07:36:19;11.43;;;3.30;;
23258;SDS011;11798;51.528;7.240;2023-02-24T07:38:51;18.43;;;5.00;;
23258;SDS011;11798;51.528;7.240;2023-02-24T07:41:21;18.33;;;4.00;;
23258;SDS011;11798;51.528;7.240;2023-02-24T07:43:50;14.33;;;4.53;;
23258;SDS011;11798;51.528;7.240;2023-02-24T07:46:25;17.40;;;3.97;;
23258;SDS011;11798;51.528;7.240;2023-02-24T07:48:52;17.30;;;3.80;;
23258;SDS011;11798;51.528;7.240;2023-02-24T07:51:20;14.13;;;3.67;;
23258;SDS011;11798;51.528;7.240;2023-02-24T07:53:52;15.10;;;4.37;;
23258;SDS011;11798;51.528;7.240;2023-02-24T07:56:25;16.60;;;4.33;;
23258;SDS011;11798;51.528;7.240;2023-02-24T07:58:53;14.90;;;4.43;;
23258;SDS011;11798;51.528;7.240;2023-02-24T08:01:26;17.70;;;4.57;;
23258;SDS011;11798;51.528;7.240;2023-02-24T08:03:57;13.67;;;3.80;;
23258;SDS011;11798;51.528;7.240;2023-02-24T08:06:39;14.73;;;4.53;;
23258;SDS011;11798;51.528;7.240;2023-02-24T08:09:10;14.13;;;4.13;;
23258;SDS011;11798;51.528;7.240;2023-02-24T08:11:54;11.37;;;3.87;;
23258;SDS011;11798;51.528;7.240;2023-02-24T08:14:21;15.60;;;4.27;;
23258;SDS011;11798;51.528;7.240;2023-02-24T08:16:59;16.33;;;3.50;;
23258;SDS011;11798;51.528;7.240;2023-02-24T08:19:30;15.07;;;4.43;;
23258;SDS011;11798;51.528;7.240;2023-02-24T08:22:10;12.13;;;3.43;;
23258;SDS011;11798;51.528;7.240;2023-02-24T08:27:19;12.00;;;3.40;;
23258;SDS011;11798;51.528;7.240;2023-02-24T08:29:50;16.80;;;3.83;;
23258;SDS011;11798;51.528;7.240;2023-02-24T08:32:29;11.63;;;3.60;;
23258;SDS011;11798;51.528;7.240;2023-02-24T08:35:05;14.37;;;3.20;;
23258;SDS011;11798;51.528;7.240;2023-02-24T08:37:39;15.57;;;4.10;;
23258;SDS011;11798;51.528;7.240;2023-02-24T08:43:07;15.87;;;3.60;;
23258;SDS011;11798;51.528;7.240;2023-02-24T08:45:50;18.90;;;3.40;;
23258;SDS011;11798;51.528;7.240;2023-02-24T08:48:28;8.90;;;3.13;;
23258;SDS011;11798;51.528;7.240;2023-02-24T08:51:12;12.73;;;3.30;;
23258;SDS011;11798;51.528;7.240;2023-02-24T08:53:41;13.50;;;3.43;;
23258;SDS011;11798;51.528;7.240;2023-02-24T08:56:12;12.07;;;2.93;;
23258;SDS011;11798;51.528;7.240;2023-02-24T08:58:43;7.80;;;3.13;;
23258;SDS011;11798;51.528;7.240;2023-02-24T09:01:17;14.50;;;3.90;;
23258;SDS011;11798;51.528;7.240;2023-02-24T09:03:49;13.53;;;3.10;;
23258;SDS011;11798;51.528;7.240;2023-02-24T09:06:35;13.60;;;3.50;;
23258;SDS011;11798;51.528;7.240;2023-02-24T09:13:08;13.90;;;3.87;;
23258;SDS011;11798;51.528;7.240;2023-02-24T09:15:36;10.97;;;2.93;;
23258;SDS011;11798;51.528;7.240;2023-02-24T09:18:08;10.47;;;3.03;;
23258;SDS011;11798;51.528;7.240;2023-02-24T09:20:38;13.53;;;3.40;;
23258;SDS011;11798;51.528;7.240;2023-02-24T09:23:25;7.90;;;3.30;;
23258;SDS011;11798;51.528;7.240;2023-02-24T09:25:54;14.73;;;2.80;;
23258;SDS011;11798;51.528;7.240;2023-02-24T09:28:22;14.93;;;3.63;;
23258;SDS011;11798;51.528;7.240;2023-02-24T09:30:58;10.40;;;3.23;;
23258;SDS011;11798;51.528;7.240;2023-02-24T09:33:33;10.33;;;3.13;;
23258;SDS011;11798;51.528;7.240;2023-02-24T09:36:07;11.00;;;2.87;;
23258;SDS011;11798;51.528;7.240;2023-02-24T09:38:42;12.83;;;2.47;;
23258;SDS011;11798;51.528;7.240;2023-02-24T09:44:41;10.83;;;3.53;;
23258;SDS011;11798;51.528;7.240;2023-02-24T09:47:10;11.90;;;2.83;;
23258;SDS011;11798;51.528;7.240;2023-02-24T09:50:29;12.27;;;2.67;;
23258;SDS011;11798;51.528;7.240;2023-02-24T09:52:50;14.77;;;3.93;;
23258;SDS011;11798;51.528;7.240;2023-02-24T09:55:39;14.23;;;3.50;;
23258;SDS011;11798;51.528;7.240;2023-02-24T09:58:37;16.63;;;3.50;;
23258;SDS011;11798;51.528;7.240;2023-02-24T10:04:33;14.97;;;4.97;;
23258;SDS011;11798;51.528;7.240;2023-02-24T10:09:59;11.90;;;2.60;;
23258;SDS011;11798;51.528;7.240;2023-02-24T10:12:48;12.43;;;2.70;;
23258;SDS011;11798;51.528;7.240;2023-02-24T10:15:33;11.77;;;3.07;;
23258;SDS011;11798;51.528;7.240;2023-02-24T10:18:36;12.07;;;2.77;;
23258;SDS011;11798;51.528;7.240;2023-02-24T10:24:40;14.30;;;3.23;;
23258;SDS011;11798;51.528;7.240;2023-02-24T10:27:32;15.43;;;3.30;;
23258;SDS011;11798;51.528;7.240;2023-02-24T10:30:04;11.40;;;3.07;;
23258;SDS011;11798;51.528;7.240;2023-02-24T10:32:48;12.97;;;2.80;;
23258;SDS011;11798;51.528;7.240;2023-02-24T10:35:25;10.83;;;3.00;;
23258;SDS011;11798;51.528;7.240;2023-02-24T10:37:58;13.13;;;3.20;;
23258;SDS011;11798;51.528;7.240;2023-02-24T10:40:33;14.27;;;4.53;;
23258;SDS011;11798;51.528;7.240;2023-02-24T10:43:20;11.87;;;3.10;;
23258;SDS011;11798;51.528;7.240;2023-02-24T10:45:58;14.33;;;3.50;;
23258;SDS011;11798;51.528;7.240;2023-02-24T10:48:31;14.03;;;3.10;;
23258;SDS011;11798;51.528;7.240;2023-02-24T10:51:13;9.73;;;3.57;;
23258;SDS011;11798;51.528;7.240;2023-02-24T10:53:47;14.30;;;3.70;;
23258;SDS011;11798;51.528;7.240;2023-02-24T10:56:40;14.10;;;3.30;;
23258;SDS011;11798;51.528;7.240;2023-02-24T10:59:15;9.93;;;3.77;;
23258;SDS011;11798;51.528;7.240;2023-02-24T11:01:53;16.20;;;4.20;;
23258;SDS011;11798;51.528;7.240;2023-02-24T11:04:36;14.20;;;3.60;;
23258;SDS011;11798;51.528;7.240;2023-02-24T11:07:29;19.90;;;3.70;;
23258;SDS011;11798;51.528;7.240;2023-02-24T11:10:14;10.93;;;4.27;;
23258;SDS011;11798;51.528;7.240;2023-02-24T11:12:50;15.10;;;5.10;;
23258;SDS011;11798;51.528;7.240;2023-02-24T11:15:37;14.93;;;4.50;;
23258;SDS011;11798;51.528;7.240;2023-02-24T11:18:25;18.40;;;5.80;;
23258;SDS011;11798;51.528;7.240;2023-02-24T11:21:00;13.60;;;4.80;;
23258;SDS011;11798;51.528;7.240;2023-02-24T11:23:31;12.97;;;4.23;;
23258;SDS011;11798;51.528;7.240;2023-02-24T11:26:06;15.87;;;4.80;;
23258;SDS011;11798;51.528;7.240;2023-02-24T11:37:38;16.53;;;5.90;;
23258;SDS011;11798;51.528;7.240;2023-02-24T11:40:17;16.67;;;6.10;;
23258;SDS011;11798;51.528;7.240;2023-02-24T11:45:31;16.87;;;6.20;;
23258;SDS011;11798;51.528;7.240;2023-02-24T11:48:08;15.80;;;5.93;;
23258;SDS011;11798;51.528;7.240;2023-02-24T11:50:49;17.40;;;5.80;;
23258;SDS011;11798;51.528;7.240;2023-02-24T11:56:17;16.87;;;6.13;;
23258;SDS011;11798;51.528;7.240;2023-02-24T11:58:53;20.87;;;6.47;;
23258;SDS011;11798;51.528;7.240;2023-02-24T12:01:30;21.07;;;6.93;;
23258;SDS011;11798;51.528;7.240;2023-02-24T12:07:04;16.23;;;6.50;;
23258;SDS011;11798;51.528;7.240;2023-02-24T12:09:40;19.87;;;6.87;;
23258;SDS011;11798;51.528;7.240;2023-02-24T12:12:27;17.40;;;8.17;;
23258;SDS011;11798;51.528;7.240;2023-02-24T12:15:12;20.37;;;8.43;;
23258;SDS011;11798;51.528;7.240;2023-02-24T12:20:57;17.97;;;8.77;;
23258;SDS011;11798;51.528;7.240;2023-02-24T12:26:07;20.33;;;9.60;;
23258;SDS011;11798;51.528;7.240;2023-02-24T12:35:12;23.07;;;9.23;;
23258;SDS011;11798;51.528;7.240;2023-02-24T12:38:02;17.97;;;8.97;;
23258;SDS011;11798;51.528;7.240;2023-02-24T12:43:17;23.37;;;10.57;;
23258;SDS011;11798;51.528;7.240;2023-02-24T12:46:08;23.10;;;10.27;;
23258;SDS011;11798;51.528;7.240;2023-02-24T12:48:55;23.10;;;10.87;;
23258;SDS011;11798;51.528;7.240;2023-02-24T13:03:06;20.87;;;10.80;;
23258;SDS011;11798;51.528;7.240;2023-02-24T13:05:48;22.30;;;10.73;;
23258;SDS011;11798;51.528;7.240;2023-02-24T13:08:35;24.20;;;10.77;;
23258;SDS011;11798;51.528;7.240;2023-02-24T13:11:19;24.43;;;11.80;;
23258;SDS011;11798;51.528;7.240;2023-02-24T13:16:37;27.37;;;12.60;;
23258;SDS011;11798;51.528;7.240;2023-02-24T13:19:06;21.50;;;12.30;;
23258;SDS011;11798;51.528;7.240;2023-02-24T13:22:05;27.93;;;14.10;;
23258;SDS011;11798;51.528;7.240;2023-02-24T13:24:58;25.83;;;13.50;;
23258;SDS011;11798;51.528;7.240;2023-02-24T13:27:32;27.47;;;14.63;;
23258;SDS011;11798;51.528;7.240;2023-02-24T13:32:46;29.70;;;15.03;;
23258;SDS011;11798;51.528;7.240;2023-02-24T13:35:29;27.27;;;14.90;;
23258;SDS011;11798;51.528;7.240;2023-02-24T13:38:06;26.93;;;15.73;;
23258;SDS011;11798;51.528;7.240;2023-02-24T13:40:33;25.43;;;15.47;;
23258;SDS011;11798;51.528;7.240;2023-02-24T13:43:00;29.40;;;14.60;;
23258;SDS011;11798;51.528;7.240;2023-02-24T13:45:35;27.67;;;15.47;;
23258;SDS011;11798;51.528;7.240;2023-02-24T13:54:07;30.70;;;17.13;;
23258;SDS011;11798;51.528;7.240;2023-02-24T13:59:55;30.10;;;17.90;;
23258;SDS011;11798;51.528;7.240;2023-02-24T14:02:37;34.07;;;19.37;;
23258;SDS011;11798;51.528;7.240;2023-02-24T14:05:41;31.33;;;20.67;;
23258;SDS011;11798;51.528;7.240;2023-02-24T14:08:01;35.63;;;19.93;;
23258;SDS011;11798;51.528;7.240;2023-02-24T14:10:32;38.83;;;21.60;;
23258;SDS011;11798;51.528;7.240;2023-02-24T14:13:12;36.00;;;20.97;;
23258;SDS011;11798;51.528;7.240;2023-02-24T14:18:50;34.70;;;21.03;;
23258;SDS011;11798;51.528;7.240;2023-02-24T14:21:20;33.87;;;21.77;;
23258;SDS011;11798;51.528;7.240;2023-02-24T14:23:58;34.10;;;21.33;;
23258;SDS011;11798;51.528;7.240;2023-02-24T14:26:34;35.77;;;21.33;;
23258;SDS011;11798;51.528;7.240;2023-02-24T14:29:09;32.93;;;20.50;;
23258;SDS011;11798;51.528;7.240;2023-02-24T14:31:38;32.60;;;19.83;;
23258;SDS011;11798;51.528;7.240;2023-02-24T14:34:05;34.13;;;19.93;;
23258;SDS011;11798;51.528;7.240;2023-02-24T14:36:41;36.53;;;20.20;;
23258;SDS011;11798;51.528;7.240;2023-02-24T14:39:21;27.90;;;19.57;;
23258;SDS011;11798;51.528;7.240;2023-02-24T14:41:48;32.27;;;19.73;;
23258;SDS011;11798;51.528;7.240;2023-02-24T14:46:52;35.90;;;18.43;;
23258;SDS011;11798;51.528;7.240;2023-02-24T14:49:23;36.10;;;20.30;;
23258;SDS011;11798;51.528;7.240;2023-02-24T14:52:05;37.33;;;19.33;;
23258;SDS011;11798;51.528;7.240;2023-02-24T14:57:30;33.40;;;18.60;;
23258;SDS011;11798;51.528;7.240;2023-02-24T14:59:59;33.10;;;19.63;;
23258;SDS011;11798;51.528;7.240;2023-02-24T15:02:43;39.20;;;21.47;;
23258;SDS011;11798;51.528;7.240;2023-02-24T15:05:14;36.33;;;20.27;;
23258;SDS011;11798;51.528;7.240;2023-02-24T15:07:42;34.77;;;20.73;;
23258;SDS011;11798;51.528;7.240;2023-02-24T15:10:21;38.97;;;22.67;;
23258;SDS011;11798;51.528;7.240;2023-02-24T15:12:59;41.43;;;20.43;;
23258;SDS011;11798;51.528;7.240;2023-02-24T15:15:41;41.47;;;22.27;;
23258;SDS011;11798;51.528;7.240;2023-02-24T15:18:19;39.13;;;22.43;;
23258;SDS011;11798;51.528;7.240;2023-02-24T15:21:02;40.80;;;22.37;;
23258;SDS011;11798;51.528;7.240;2023-02-24T15:23:32;44.27;;;23.80;;
23258;SDS011;11798;51.528;7.240;2023-02-24T15:26:03;39.77;;;22.60;;
23258;SDS011;11798;51.528;7.240;2023-02-24T15:28:48;34.43;;;21.77;;
23258;SDS011;11798;51.528;7.240;2023-02-24T15:31:23;39.33;;;22.20;;
23258;SDS011;11798;51.528;7.240;2023-02-24T15:33:54;35.93;;;23.10;;
23258;SDS011;11798;51.528;7.240;2023-02-24T15:36:34;45.67;;;22.87;;
23258;SDS011;11798;51.528;7.240;2023-02-24T15:39:05;41.27;;;23.23;;
23258;SDS011;11798;51.528;7.240;2023-02-24T15:41:45;40.17;;;22.93;;
23258;SDS011;11798;51.528;7.240;2023-02-24T15:44:25;41.27;;;23.43;;
23258;SDS011;11798;51.528;7.240;2023-02-24T15:46:54;39.27;;;23.00;;
23258;SDS011;11798;51.528;7.240;2023-02-24T15:49:26;38.27;;;22.63;;
23258;SDS011;11798;51.528;7.240;2023-02-24T15:51:53;46.03;;;23.30;;
23258;SDS011;11798;51.528;7.240;2023-02-24T15:54:31;39.50;;;23.07;;
23258;SDS011;11798;51.528;7.240;2023-02-24T15:57:16;39.50;;;23.63;;
23258;SDS011;11798;51.528;7.240;2023-02-24T15:59:50;39.47;;;23.37;;
23258;SDS011;11798;51.528;7.240;2023-02-24T16:02:24;42.83;;;23.83;;
23258;SDS011;11798;51.528;7.240;2023-02-24T16:05:00;38.70;;;23.07;;
23258;SDS011;11798;51.528;7.240;2023-02-24T16:07:32;37.53;;;22.23;;
23258;SDS011;11798;51.528;7.240;2023-02-24T16:12:53;36.50;;;22.03;;
23258;SDS011;11798;51.528;7.240;2023-02-24T16:15:27;40.50;;;23.20;;
23258;SDS011;11798;51.528;7.240;2023-02-24T16:18:05;32.93;;;21.60;;
23258;SDS011;11798;51.528;7.240;2023-02-24T16:20:43;38.57;;;22.27;;
23258;SDS011;11798;51.528;7.240;2023-02-24T16:23:23;36.13;;;23.00;;
23258;SDS011;11798;51.528;7.240;2023-02-24T16:25:53;35.97;;;22.07;;
23258;SDS011;11798;51.528;7.240;2023-02-24T16:28:26;38.23;;;23.00;;
23258;SDS011;11798;51.528;7.240;2023-02-24T16:30:55;35.50;;;22.60;;
23258;SDS011;11798;51.528;7.240;2023-02-24T16:33:24;41.50;;;23.97;;
23258;SDS011;11798;51.528;7.240;2023-02-24T16:35:52;37.00;;;23.97;;
23258;SDS011;11798;51.528;7.240;2023-02-24T16:38:19;31.63;;;21.37;;
23258;SDS011;11798;51.528;7.240;2023-02-24T16:40:53;33.77;;;21.10;;
23258;SDS011;11798;51.528;7.240;2023-02-24T16:43:20;31.93;;;20.90;;
23258;SDS011;11798;51.528;7.240;2023-02-24T16:45:49;32.83;;;19.27;;
23258;SDS011;11798;51.528;7.240;2023-02-24T16:48:21;30.03;;;18.17;;
23258;SDS011;11798;51.528;7.240;2023-02-24T16:50:53;25.60;;;13.97;;
23258;SDS011;11798;51.528;7.240;2023-02-24T16:53:22;20.33;;;9.97;;
23258;SDS011;11798;51.528;7.240;2023-02-24T16:55:49;22.40;;;10.13;;
23258;SDS011;11798;51.528;7.240;2023-02-24T16:58:59;21.43;;;11.57;;
23258;SDS011;11798;51.528;7.240;2023-02-24T17:01:29;19.40;;;10.63;;
23258;SDS011;11798;51.528;7.240;2023-02-24T17:03:55;18.27;;;10.70;;
23258;SDS011;11798;51.528;7.240;2023-02-24T17:06:21;25.67;;;9.77;;
23258;SDS011;11798;51.528;7.240;2023-02-24T17:08:53;18.73;;;8.50;;
23258;SDS011;11798;51.528;7.240;2023-02-24T17:11:19;12.77;;;7.37;;
23258;SDS011;11798;51.528;7.240;2023-02-24T17:13:47;14.57;;;6.17;;
23258;SDS011;11798;51.528;7.240;2023-02-24T17:16:14;21.50;;;6.00;;
23258;SDS011;11798;51.528;7.240;2023-02-24T17:18:43;15.97;;;6.57;;
23258;SDS011;11798;51.528;7.240;2023-02-24T17:21:12;19.80;;;6.77;;
23258;SDS011;11798;51.528;7.240;2023-02-24T17:23:42;15.60;;;7.67;;
23258;SDS011;11798;51.528;7.240;2023-02-24T17:26:12;19.37;;;7.67;;